DLH92F LPPR-EDDF
Flight info
| Callsign | DLH92F |
|---|---|
| Flight time | N/A |
| Altitude | 28000 |
| Route | TURON P600 ASDEB/N0495F400 DCT LOTEE DCT AZFIC/N0493F340 UN741 ERIGA/N0492F400 UN741 MOKOR UN873 OBATO UM163 TSU UN858 OQQAL DCT RANUX/N0485F410 DCT VALEK DCT LIPNI DCT LIMGO/N0488F350 Z111 TUTOV/N0458F230 Z111 RAMOB IMCOM1A |
| Aircraft | A359/H-SDE2E3GHIJ3J4J5LM1ORWXY/LB1D1 |
Departure
| Time | 2026-05-04 15:04 |
|---|---|
| Airport | Francisco de Sá Carneiro Airport (LPPR) |
Arrival
| Time | N/A |
|---|---|
| Airport | Frankfurt Main Airport (EDDF) |
| Time | Latitude | Longitude | Altitude | Speed | Heading |
|---|---|---|---|---|---|
| 2026-05-04 14:28 | 41.24020 | -8.67311 | 240 ft | 0 kts | 90° |
| 2026-05-04 14:50 | 41.24020 | -8.67313 | 240 ft | 3 kts | 90° |
| 2026-05-04 14:50 | 41.24020 | -8.67340 | 238 ft | 3 kts | 95° |
| 2026-05-04 14:51 | 41.24025 | -8.67367 | 237 ft | 3 kts | 117° |
| 2026-05-04 14:51 | 41.24036 | -8.67389 | 240 ft | 2 kts | 129° |
| 2026-05-04 14:51 | 41.24046 | -8.67405 | 239 ft | 3 kts | 140° |
| 2026-05-04 14:51 | 41.24063 | -8.67422 | 237 ft | 3 kts | 146° |
| 2026-05-04 14:52 | 41.24082 | -8.67434 | 234 ft | 3 kts | 165° |
| 2026-05-04 14:52 | 41.24085 | -8.67435 | 234 ft | 0 kts | 166° |
| 2026-05-04 14:54 | 41.24079 | -8.67433 | 230 ft | 2 kts | 166° |
| 2026-05-04 14:54 | 41.24053 | -8.67425 | 232 ft | 5 kts | 168° |
| 2026-05-04 14:54 | 41.24009 | -8.67420 | 237 ft | 7 kts | 181° |
| 2026-05-04 14:54 | 41.23962 | -8.67445 | 236 ft | 8 kts | 214° |
| 2026-05-04 14:55 | 41.23917 | -8.67483 | 231 ft | 6 kts | 208° |
| 2026-05-04 14:55 | 41.23907 | -8.67487 | 231 ft | 2 kts | 193° |
| 2026-05-04 14:55 | 41.23900 | -8.67487 | 231 ft | 0 kts | 181° |
| 2026-05-04 14:55 | 41.23897 | -8.67487 | 231 ft | 1 kts | 181° |
| 2026-05-04 14:56 | 41.23882 | -8.67486 | 232 ft | 3 kts | 178° |
| 2026-05-04 14:56 | 41.23876 | -8.67485 | 232 ft | 0 kts | 174° |
| 2026-05-04 14:56 | 41.23874 | -8.67485 | 232 ft | 1 kts | 174° |
| 2026-05-04 14:56 | 41.23850 | -8.67480 | 232 ft | 4 kts | 169° |
| 2026-05-04 14:57 | 41.23802 | -8.67469 | 231 ft | 12 kts | 170° |
| 2026-05-04 14:57 | 41.23700 | -8.67446 | 233 ft | 15 kts | 167° |
| 2026-05-04 14:57 | 41.23607 | -8.67421 | 239 ft | 12 kts | 169° |
| 2026-05-04 14:57 | 41.23530 | -8.67399 | 242 ft | 11 kts | 168° |
| 2026-05-04 14:58 | 41.23480 | -8.67386 | 244 ft | 11 kts | 169° |
| 2026-05-04 14:58 | 41.23405 | -8.67367 | 244 ft | 9 kts | 172° |
| 2026-05-04 14:58 | 41.23348 | -8.67392 | 242 ft | 9 kts | 223° |
| 2026-05-04 14:58 | 41.23325 | -8.67476 | 241 ft | 11 kts | 258° |
| 2026-05-04 14:59 | 41.23312 | -8.67564 | 243 ft | 7 kts | 259° |
| 2026-05-04 14:59 | 41.23309 | -8.67586 | 244 ft | 0 kts | 258° |
| 2026-05-04 15:01 | 41.23304 | -8.67620 | 245 ft | 7 kts | 258° |
| 2026-05-04 15:02 | 41.23295 | -8.67690 | 247 ft | 6 kts | 270° |
| 2026-05-04 15:02 | 41.23317 | -8.67729 | 247 ft | 6 kts | 329° |
| 2026-05-04 15:02 | 41.23363 | -8.67748 | 245 ft | 1 kts | 347° |
| 2026-05-04 15:03 | 41.23382 | -8.67753 | 244 ft | 9 kts | 348° |
| 2026-05-04 15:03 | 41.23647 | -8.67823 | 234 ft | 77 kts | 349° |
| 2026-05-04 15:03 | 41.24418 | -8.68022 | 222 ft | 145 kts | 348° |
| 2026-05-04 15:03 | 41.25542 | -8.68286 | 586 ft | 170 kts | 349° |
| 2026-05-04 15:04 | 41.26720 | -8.68577 | 1488 ft | 175 kts | 346° |
| 2026-05-04 15:04 | 41.27971 | -8.68944 | 2065 ft | 193 kts | 344° |
| 2026-05-04 15:04 | 41.29363 | -8.69417 | 2550 ft | 220 kts | 343° |
| 2026-05-04 15:04 | 41.30927 | -8.69869 | 3203 ft | 237 kts | 346° |
| 2026-05-04 15:05 | 41.32585 | -8.70273 | 4015 ft | 246 kts | 347° |
| 2026-05-04 15:05 | 41.34289 | -8.70674 | 4745 ft | 251 kts | 347° |
| 2026-05-04 15:05 | 41.36019 | -8.71090 | 5446 ft | 255 kts | 347° |
| 2026-05-04 15:05 | 41.37779 | -8.71524 | 6174 ft | 259 kts | 347° |
| 2026-05-04 15:06 | 41.39534 | -8.71973 | 6870 ft | 262 kts | 347° |
| 2026-05-04 15:06 | 41.41346 | -8.72430 | 7544 ft | 267 kts | 347° |
| 2026-05-04 15:06 | 41.43226 | -8.72530 | 8235 ft | 275 kts | 2° |
| 2026-05-04 15:07 | 41.47063 | -8.71662 | 9698 ft | 284 kts | 7° |
| 2026-05-04 15:07 | 41.49019 | -8.71154 | 10320 ft | 291 kts | 7° |
| 2026-05-04 15:07 | 41.51060 | -8.70631 | 10626 ft | 307 kts | 7° |
| 2026-05-04 15:07 | 41.53219 | -8.70082 | 10900 ft | 324 kts | 7° |
| 2026-05-04 15:08 | 41.55481 | -8.69505 | 11206 ft | 339 kts | 8° |
| 2026-05-04 15:08 | 41.57848 | -8.68893 | 11507 ft | 352 kts | 8° |
| 2026-05-04 15:08 | 41.60277 | -8.68263 | 11987 ft | 358 kts | 8° |
| 2026-05-04 15:08 | 41.62740 | -8.67626 | 12551 ft | 362 kts | 8° |
| 2026-05-04 15:09 | 41.65232 | -8.66985 | 13124 ft | 365 kts | 7° |
| 2026-05-04 15:09 | 41.67703 | -8.66354 | 13663 ft | 368 kts | 7° |
| 2026-05-04 15:09 | 41.70240 | -8.65707 | 14176 ft | 372 kts | 7° |
| 2026-05-04 15:10 | 41.75367 | -8.64399 | 15174 ft | 378 kts | 7° |
| 2026-05-04 15:10 | 41.77962 | -8.63737 | 15679 ft | 381 kts | 7° |
| 2026-05-04 15:10 | 41.83225 | -8.62393 | 16701 ft | 388 kts | 7° |
| 2026-05-04 15:11 | 41.85888 | -8.61712 | 17204 ft | 391 kts | 7° |
| 2026-05-04 15:11 | 41.88575 | -8.61024 | 17705 ft | 394 kts | 6° |
| 2026-05-04 15:11 | 41.91280 | -8.60331 | 18197 ft | 398 kts | 6° |
| 2026-05-04 15:11 | 41.94015 | -8.59633 | 18633 ft | 401 kts | 6° |
| 2026-05-04 15:12 | 41.96760 | -8.58930 | 19102 ft | 403 kts | 6° |
| 2026-05-04 15:12 | 41.99534 | -8.58217 | 19560 ft | 406 kts | 6° |
| 2026-05-04 15:12 | 42.02316 | -8.57502 | 19975 ft | 409 kts | 6° |
| 2026-05-04 15:12 | 42.05123 | -8.56780 | 20382 ft | 411 kts | 6° |
| 2026-05-04 15:13 | 42.07944 | -8.56108 | 20800 ft | 413 kts | 4° |
| 2026-05-04 15:13 | 42.10803 | -8.55566 | 21218 ft | 414 kts | 2° |
| 2026-05-04 15:13 | 42.13674 | -8.55110 | 21637 ft | 416 kts | 1° |
| 2026-05-04 15:13 | 42.16564 | -8.54689 | 22039 ft | 419 kts | 1° |
| 2026-05-04 15:14 | 42.19463 | -8.54272 | 22444 ft | 421 kts | 1° |
| 2026-05-04 15:14 | 42.22396 | -8.53844 | 22813 ft | 425 kts | 1° |
| 2026-05-04 15:14 | 42.25310 | -8.53404 | 23207 ft | 427 kts | 1° |
| 2026-05-04 15:14 | 42.28305 | -8.52938 | 23658 ft | 429 kts | 1° |
| 2026-05-04 15:15 | 42.31277 | -8.52467 | 23975 ft | 432 kts | 2° |
| 2026-05-04 15:15 | 42.34235 | -8.51994 | 24311 ft | 434 kts | 2° |
| 2026-05-04 15:15 | 42.37247 | -8.51509 | 24644 ft | 437 kts | 2° |
| 2026-05-04 15:16 | 42.43332 | -8.50530 | 25333 ft | 442 kts | 2° |
| 2026-05-04 15:16 | 42.46392 | -8.50020 | 25665 ft | 446 kts | 4° |
| 2026-05-04 15:16 | 42.52406 | -8.47459 | 26340 ft | 464 kts | 24° |
| 2026-05-04 15:17 | 42.55131 | -8.45057 | 26695 ft | 471 kts | 33° |
| 2026-05-04 15:17 | 42.60246 | -8.39336 | 27423 ft | 480 kts | 38° |
| 2026-05-04 15:17 | 42.62742 | -8.36317 | 27792 ft | 483 kts | 39° |
| 2026-05-04 15:18 | 42.65223 | -8.33278 | 28039 ft | 488 kts | 39° |
| 2026-05-04 15:18 | 42.67786 | -8.30149 | 28073 ft | 502 kts | 39° |
| 2026-05-04 15:18 | 42.70433 | -8.26945 | 28074 ft | 515 kts | 39° |
| 2026-05-04 15:19 | 42.75816 | -8.20484 | 28072 ft | 516 kts | 39° |
| 2026-05-04 15:19 | 42.83906 | -8.10821 | 28066 ft | 516 kts | 39° |
| 2026-05-04 15:20 | 42.89295 | -8.04371 | 28061 ft | 516 kts | 39° |
| 2026-05-04 15:20 | 42.94693 | -7.97893 | 28057 ft | 517 kts | 39° |
| 2026-05-04 15:21 | 43.00093 | -7.91393 | 28052 ft | 517 kts | 39° |
| 2026-05-04 15:22 | 43.08150 | -7.81668 | 28054 ft | 517 kts | 40° |
| 2026-05-04 15:22 | 43.16229 | -7.71880 | 28048 ft | 516 kts | 40° |
| 2026-05-04 15:23 | 43.21609 | -7.65340 | 28039 ft | 516 kts | 40° |
| 2026-05-04 15:23 | 43.26982 | -7.58794 | 28037 ft | 516 kts | 40° |
| 2026-05-04 15:24 | 43.37684 | -7.45707 | 28031 ft | 516 kts | 40° |
| 2026-05-04 15:25 | 43.43045 | -7.39126 | 28025 ft | 516 kts | 40° |
| 2026-05-04 15:26 | 43.51065 | -7.29254 | 28016 ft | 515 kts | 41° |
| 2026-05-04 15:26 | 43.59072 | -7.19358 | 28020 ft | 515 kts | 41° |
| 2026-05-04 15:27 | 43.67070 | -7.09435 | 28010 ft | 515 kts | 41° |
| 2026-05-04 15:28 | 43.75060 | -6.99486 | 28016 ft | 515 kts | 41° |
| 2026-05-04 15:29 | 43.83040 | -6.89513 | 28010 ft | 515 kts | 41° |
| 2026-05-04 15:30 | 44.01594 | -6.66178 | 28001 ft | 515 kts | 42° |
| 2026-05-04 15:31 | 44.09538 | -6.56124 | 28002 ft | 514 kts | 42° |
| 2026-05-04 15:32 | 44.22747 | -6.39322 | 27998 ft | 514 kts | 42° |
| 2026-05-04 15:33 | 44.28037 | -6.32563 | 27993 ft | 514 kts | 42° |
| 2026-05-04 15:34 | 44.35943 | -6.22429 | 27996 ft | 514 kts | 42° |
| 2026-05-04 15:34 | 44.38574 | -6.19048 | 27992 ft | 514 kts | 42° |
| 2026-05-04 15:34 | 44.43806 | -6.12312 | 27996 ft | 514 kts | 43° |
| 2026-05-04 15:35 | 44.49064 | -6.05525 | 27989 ft | 514 kts | 43° |
| 2026-05-04 15:35 | 44.51690 | -6.02130 | 27991 ft | 514 kts | 43° |
| 2026-05-04 15:35 | 44.54315 | -5.98729 | 27992 ft | 514 kts | 43° |
| 2026-05-04 15:36 | 44.59565 | -5.91918 | 27995 ft | 514 kts | 43° |
| 2026-05-04 15:36 | 44.62186 | -5.88511 | 27994 ft | 514 kts | 43° |
| 2026-05-04 15:36 | 44.64805 | -5.85101 | 27989 ft | 514 kts | 43° |
| 2026-05-04 15:37 | 44.67408 | -5.81670 | 27989 ft | 513 kts | 44° |
| 2026-05-04 15:37 | 44.69951 | -5.78235 | 27985 ft | 513 kts | 44° |
| 2026-05-04 15:37 | 44.72507 | -5.74730 | 27987 ft | 513 kts | 45° |
| 2026-05-04 15:37 | 44.75054 | -5.71215 | 27988 ft | 513 kts | 45° |
| 2026-05-04 15:38 | 44.77596 | -5.67701 | 27989 ft | 512 kts | 45° |
| 2026-05-04 15:38 | 44.80136 | -5.64192 | 27988 ft | 512 kts | 45° |
| 2026-05-04 15:38 | 44.82685 | -5.60675 | 27991 ft | 512 kts | 45° |
| 2026-05-04 15:38 | 44.85227 | -5.57169 | 27992 ft | 512 kts | 45° |
| 2026-05-04 15:39 | 44.87768 | -5.53662 | 27988 ft | 511 kts | 45° |
| 2026-05-04 15:39 | 44.90309 | -5.50154 | 27986 ft | 511 kts | 45° |
| 2026-05-04 15:39 | 44.95390 | -5.43126 | 27982 ft | 511 kts | 45° |
| 2026-05-04 15:40 | 44.97926 | -5.39611 | 27985 ft | 511 kts | 45° |
| 2026-05-04 15:40 | 45.00460 | -5.36093 | 27985 ft | 511 kts | 45° |
| 2026-05-04 15:40 | 45.02994 | -5.32570 | 27985 ft | 511 kts | 45° |
| 2026-05-04 15:40 | 45.05527 | -5.29045 | 27988 ft | 511 kts | 45° |
| 2026-05-04 15:41 | 45.08058 | -5.25518 | 27986 ft | 511 kts | 45° |
| 2026-05-04 15:41 | 45.10580 | -5.21998 | 27986 ft | 511 kts | 45° |
| 2026-05-04 15:41 | 45.13119 | -5.18451 | 27987 ft | 511 kts | 46° |
| 2026-05-04 15:41 | 45.15645 | -5.14917 | 27986 ft | 510 kts | 46° |
| 2026-05-04 15:42 | 45.18167 | -5.11384 | 27986 ft | 510 kts | 46° |
| 2026-05-04 15:42 | 45.20687 | -5.07847 | 27984 ft | 510 kts | 46° |
| 2026-05-04 15:42 | 45.23211 | -5.04302 | 27986 ft | 510 kts | 46° |
| 2026-05-04 15:42 | 45.25726 | -5.00765 | 27985 ft | 510 kts | 46° |
| 2026-05-04 15:43 | 45.28210 | -4.97267 | 27984 ft | 509 kts | 46° |
| 2026-05-04 15:43 | 45.30723 | -4.93722 | 27983 ft | 509 kts | 46° |
| 2026-05-04 15:43 | 45.32419 | -4.91328 | 27983 ft | 509 kts | 46° |
| 2026-05-04 15:43 | 45.35740 | -4.86633 | 27986 ft | 508 kts | 46° |
| 2026-05-04 15:44 | 45.38243 | -4.83089 | 27982 ft | 508 kts | 46° |
| 2026-05-04 15:44 | 45.40741 | -4.79547 | 27981 ft | 507 kts | 46° |
| 2026-05-04 15:44 | 45.42431 | -4.77149 | 27981 ft | 507 kts | 46° |
| 2026-05-04 15:44 | 45.44901 | -4.73639 | 27980 ft | 507 kts | 46° |
| 2026-05-04 15:45 | 45.47393 | -4.70093 | 27979 ft | 507 kts | 46° |
| 2026-05-04 15:45 | 45.49924 | -4.66487 | 27977 ft | 506 kts | 46° |
| 2026-05-04 15:45 | 45.52383 | -4.62979 | 27978 ft | 506 kts | 46° |
| 2026-05-04 15:45 | 45.54861 | -4.59439 | 27978 ft | 506 kts | 46° |
| 2026-05-04 15:46 | 45.57344 | -4.55887 | 27980 ft | 505 kts | 46° |
| 2026-05-04 15:46 | 45.59830 | -4.52327 | 27979 ft | 505 kts | 46° |
| 2026-05-04 15:46 | 45.62304 | -4.48779 | 27979 ft | 504 kts | 46° |
| 2026-05-04 15:46 | 45.64779 | -4.45225 | 27977 ft | 504 kts | 47° |
| 2026-05-04 15:47 | 45.67248 | -4.41674 | 27977 ft | 504 kts | 47° |
| 2026-05-04 15:47 | 45.69722 | -4.38112 | 27980 ft | 504 kts | 47° |
| 2026-05-04 15:47 | 45.72191 | -4.34552 | 27977 ft | 503 kts | 47° |
| 2026-05-04 15:47 | 45.74652 | -4.31000 | 27979 ft | 503 kts | 47° |
| 2026-05-04 15:48 | 45.77123 | -4.27427 | 27979 ft | 503 kts | 47° |
| 2026-05-04 15:48 | 45.79578 | -4.23874 | 27979 ft | 503 kts | 47° |
| 2026-05-04 15:48 | 45.84497 | -4.16740 | 27980 ft | 502 kts | 47° |
| 2026-05-04 15:49 | 45.86953 | -4.13171 | 27979 ft | 502 kts | 47° |
| 2026-05-04 15:49 | 45.89375 | -4.09647 | 27981 ft | 502 kts | 47° |
| 2026-05-04 15:49 | 45.91827 | -4.06074 | 27979 ft | 502 kts | 47° |
| 2026-05-04 15:49 | 45.94304 | -4.02460 | 27979 ft | 502 kts | 47° |
| 2026-05-04 15:50 | 45.96750 | -3.98886 | 27976 ft | 502 kts | 47° |
| 2026-05-04 15:50 | 45.99167 | -3.95352 | 27979 ft | 502 kts | 47° |
| 2026-05-04 15:50 | 46.01612 | -3.91769 | 27980 ft | 502 kts | 48° |
| 2026-05-04 15:50 | 46.04052 | -3.88190 | 27980 ft | 502 kts | 48° |
| 2026-05-04 15:51 | 46.06493 | -3.84604 | 27974 ft | 501 kts | 48° |
| 2026-05-04 15:51 | 46.08942 | -3.81002 | 27977 ft | 501 kts | 48° |
| 2026-05-04 15:51 | 46.11380 | -3.77412 | 27974 ft | 501 kts | 48° |
| 2026-05-04 15:51 | 46.13813 | -3.73824 | 27974 ft | 501 kts | 48° |
| 2026-05-04 15:52 | 46.16248 | -3.70228 | 27974 ft | 501 kts | 48° |
| 2026-05-04 15:52 | 46.18678 | -3.66634 | 27974 ft | 500 kts | 48° |
| 2026-05-04 15:52 | 46.21103 | -3.63044 | 27973 ft | 500 kts | 49° |
| 2026-05-04 15:52 | 46.23534 | -3.59440 | 27973 ft | 500 kts | 49° |
| 2026-05-04 15:53 | 46.25954 | -3.55847 | 27973 ft | 500 kts | 49° |
| 2026-05-04 15:53 | 46.28377 | -3.52244 | 27975 ft | 500 kts | 49° |
| 2026-05-04 15:53 | 46.30802 | -3.48631 | 27970 ft | 500 kts | 49° |
| 2026-05-04 15:53 | 46.33219 | -3.45027 | 27968 ft | 500 kts | 49° |
| 2026-05-04 15:54 | 46.35642 | -3.41407 | 27971 ft | 500 kts | 49° |
| 2026-05-04 15:54 | 46.38066 | -3.37782 | 27969 ft | 500 kts | 49° |
| 2026-05-04 15:54 | 46.40488 | -3.34156 | 27974 ft | 501 kts | 49° |
| 2026-05-04 15:54 | 46.42910 | -3.30525 | 27972 ft | 501 kts | 49° |
| 2026-05-04 15:55 | 46.45331 | -3.26890 | 27973 ft | 501 kts | 49° |
| 2026-05-04 15:55 | 46.47755 | -3.23246 | 27967 ft | 501 kts | 49° |
| 2026-05-04 15:55 | 46.50176 | -3.19602 | 27969 ft | 502 kts | 49° |
| 2026-05-04 15:55 | 46.52591 | -3.15962 | 27970 ft | 502 kts | 49° |
| 2026-05-04 15:56 | 46.54976 | -3.12343 | 27964 ft | 501 kts | 51° |
| 2026-05-04 15:56 | 46.57171 | -3.08356 | 27982 ft | 497 kts | 59° |
| 2026-05-04 15:56 | 46.59050 | -3.04150 | 27976 ft | 496 kts | 62° |
| 2026-05-04 15:56 | 46.60821 | -2.99932 | 27957 ft | 495 kts | 63° |
| 2026-05-04 15:57 | 46.62563 | -2.95621 | 27967 ft | 494 kts | 64° |
| 2026-05-04 15:57 | 46.64281 | -2.91285 | 27959 ft | 494 kts | 64° |
| 2026-05-04 15:57 | 46.65992 | -2.86938 | 27962 ft | 494 kts | 64° |
| 2026-05-04 15:57 | 46.67708 | -2.82583 | 27962 ft | 494 kts | 64° |
| 2026-05-04 15:58 | 46.69420 | -2.78254 | 27960 ft | 494 kts | 65° |
| 2026-05-04 15:58 | 46.71141 | -2.73913 | 27960 ft | 494 kts | 65° |
| 2026-05-04 15:58 | 46.72866 | -2.69568 | 27958 ft | 495 kts | 65° |
| 2026-05-04 15:58 | 46.74588 | -2.65230 | 27958 ft | 495 kts | 65° |
| 2026-05-04 15:59 | 46.76310 | -2.60889 | 27960 ft | 495 kts | 65° |
| 2026-05-04 15:59 | 46.78034 | -2.56536 | 27956 ft | 496 kts | 65° |
| 2026-05-04 15:59 | 46.79759 | -2.52172 | 27957 ft | 496 kts | 65° |
| 2026-05-04 15:59 | 46.81485 | -2.47800 | 27963 ft | 497 kts | 65° |
| 2026-05-04 16:00 | 46.83209 | -2.43427 | 27958 ft | 497 kts | 65° |
| 2026-05-04 16:00 | 46.84932 | -2.39047 | 27961 ft | 498 kts | 65° |
| 2026-05-04 16:00 | 46.86676 | -2.34659 | 27961 ft | 499 kts | 64° |
| 2026-05-04 16:00 | 46.88468 | -2.30315 | 27960 ft | 500 kts | 64° |
| 2026-05-04 16:01 | 46.90298 | -2.25982 | 27956 ft | 501 kts | 63° |
| 2026-05-04 16:01 | 46.92141 | -2.21657 | 27962 ft | 501 kts | 63° |
| 2026-05-04 16:01 | 46.93987 | -2.17327 | 27958 ft | 502 kts | 63° |
| 2026-05-04 16:01 | 46.95808 | -2.13034 | 27956 ft | 502 kts | 63° |
| 2026-05-04 16:02 | 46.97641 | -2.08685 | 27967 ft | 503 kts | 63° |
| 2026-05-04 16:02 | 46.99569 | -2.04390 | 27963 ft | 507 kts | 58° |
| 2026-05-04 16:02 | 47.04595 | -1.97031 | 27964 ft | 516 kts | 43° |
| 2026-05-04 16:03 | 47.07415 | -1.93743 | 27947 ft | 517 kts | 41° |
| 2026-05-04 16:03 | 47.10285 | -1.90551 | 27944 ft | 518 kts | 40° |
| 2026-05-04 16:03 | 47.13184 | -1.87399 | 27947 ft | 518 kts | 40° |
| 2026-05-04 16:03 | 47.16090 | -1.84254 | 27949 ft | 518 kts | 39° |
| 2026-05-04 16:04 | 47.18991 | -1.81112 | 27936 ft | 518 kts | 40° |
| 2026-05-04 16:04 | 47.24752 | -1.74824 | 27954 ft | 518 kts | 40° |
| 2026-05-04 16:04 | 47.27633 | -1.71651 | 27933 ft | 518 kts | 40° |
| 2026-05-04 16:05 | 47.30514 | -1.68465 | 27949 ft | 518 kts | 40° |
| 2026-05-04 16:05 | 47.33343 | -1.65187 | 27953 ft | 516 kts | 44° |
| 2026-05-04 16:05 | 47.38137 | -1.57449 | 27947 ft | 510 kts | 54° |
| 2026-05-04 16:06 | 47.40369 | -1.53352 | 27946 ft | 509 kts | 56° |
| 2026-05-04 16:06 | 47.46140 | -1.42331 | 27949 ft | 509 kts | 56° |
| 2026-05-04 16:07 | 47.49032 | -1.36783 | 27954 ft | 509 kts | 56° |
| 2026-05-04 16:07 | 47.55506 | -1.24425 | 27951 ft | 508 kts | 56° |
| 2026-05-04 16:08 | 47.57676 | -1.20286 | 27952 ft | 508 kts | 56° |
| 2026-05-04 16:08 | 47.64171 | -1.07864 | 27950 ft | 508 kts | 56° |
| 2026-05-04 16:09 | 47.68488 | -0.99572 | 27951 ft | 507 kts | 56° |
| 2026-05-04 16:09 | 47.72802 | -0.91259 | 27957 ft | 507 kts | 56° |
| 2026-05-04 16:10 | 47.77093 | -0.82961 | 27957 ft | 507 kts | 56° |
| 2026-05-04 16:11 | 47.83498 | -0.70526 | 27960 ft | 507 kts | 56° |
| 2026-05-04 16:11 | 47.85641 | -0.66352 | 27960 ft | 507 kts | 56° |
| 2026-05-04 16:12 | 47.92064 | -0.53807 | 27962 ft | 507 kts | 56° |
| 2026-05-04 16:12 | 47.98471 | -0.41238 | 27959 ft | 508 kts | 56° |
| 2026-05-04 16:13 | 48.02740 | -0.32831 | 27959 ft | 508 kts | 56° |
| 2026-05-04 16:13 | 48.06794 | -0.24207 | 27957 ft | 505 kts | 64° |
| 2026-05-04 16:14 | 48.09977 | -0.14839 | 27951 ft | 504 kts | 67° |
| 2026-05-04 16:14 | 48.12928 | -0.05401 | 27951 ft | 504 kts | 68° |
| 2026-05-04 16:15 | 48.17341 | 0.08905 | 27950 ft | 504 kts | 68° |
| 2026-05-04 16:16 | 48.20296 | 0.18436 | 27950 ft | 504 kts | 68° |
| 2026-05-04 16:16 | 48.24721 | 0.32728 | 27956 ft | 503 kts | 68° |
| 2026-05-04 16:17 | 48.27663 | 0.42277 | 27960 ft | 504 kts | 68° |
| 2026-05-04 16:18 | 48.32044 | 0.56570 | 27953 ft | 504 kts | 68° |
| 2026-05-04 16:18 | 48.33507 | 0.61363 | 27955 ft | 504 kts | 68° |
| 2026-05-04 16:19 | 48.37886 | 0.75761 | 27956 ft | 505 kts | 68° |
| 2026-05-04 16:19 | 48.40793 | 0.85366 | 27949 ft | 505 kts | 68° |
| 2026-05-04 16:20 | 48.45134 | 0.99782 | 27939 ft | 505 kts | 68° |
| 2026-05-04 16:20 | 48.48026 | 1.09434 | 27935 ft | 505 kts | 69° |
| 2026-05-04 16:21 | 48.52353 | 1.23942 | 27935 ft | 506 kts | 69° |
| 2026-05-04 16:22 | 48.55229 | 1.33632 | 27932 ft | 506 kts | 69° |
| 2026-05-04 16:22 | 48.59527 | 1.48187 | 27930 ft | 506 kts | 69° |
| 2026-05-04 16:23 | 48.63796 | 1.62732 | 27932 ft | 506 kts | 69° |
| 2026-05-04 16:24 | 48.68559 | 1.81483 | 27947 ft | 505 kts | 73° |
| 2026-05-04 16:25 | 48.70914 | 1.91518 | 27938 ft | 506 kts | 73° |
| 2026-05-04 16:26 | 48.75496 | 2.10810 | 27934 ft | 506 kts | 74° |
| 2026-05-04 16:26 | 48.78390 | 2.26151 | 27946 ft | 504 kts | 78° |
| 2026-05-04 16:27 | 48.80149 | 2.36447 | 27945 ft | 504 kts | 78° |
| 2026-05-04 16:28 | 48.82855 | 2.51912 | 27941 ft | 506 kts | 78° |
| 2026-05-04 16:28 | 48.85598 | 2.67412 | 27936 ft | 506 kts | 78° |
| 2026-05-04 16:29 | 48.89208 | 2.88041 | 27947 ft | 507 kts | 78° |
| 2026-05-04 16:30 | 48.91900 | 3.03599 | 27939 ft | 508 kts | 78° |
| 2026-05-04 16:31 | 48.93402 | 3.12337 | 27939 ft | 508 kts | 78° |
| 2026-05-04 16:31 | 48.96052 | 3.27864 | 27940 ft | 508 kts | 78° |
| 2026-05-04 16:32 | 48.98698 | 3.43500 | 27944 ft | 508 kts | 78° |
| 2026-05-04 16:33 | 49.00451 | 3.53935 | 27940 ft | 509 kts | 78° |
| 2026-05-04 16:33 | 49.02196 | 3.64389 | 27940 ft | 509 kts | 78° |
| 2026-05-04 16:34 | 49.03933 | 3.74857 | 27941 ft | 510 kts | 78° |
| 2026-05-04 16:34 | 49.04798 | 3.80099 | 27940 ft | 510 kts | 78° |
| 2026-05-04 16:35 | 49.07370 | 3.95768 | 27940 ft | 510 kts | 79° |
| 2026-05-04 16:35 | 49.10289 | 4.11403 | 27932 ft | 513 kts | 72° |
| 2026-05-04 16:36 | 49.11564 | 4.16504 | 27935 ft | 514 kts | 71° |
| 2026-05-04 16:36 | 49.14157 | 4.26683 | 27934 ft | 515 kts | 71° |
| 2026-05-04 16:37 | 49.16755 | 4.36890 | 27938 ft | 515 kts | 72° |
| 2026-05-04 16:37 | 49.18051 | 4.42001 | 27941 ft | 516 kts | 72° |
| 2026-05-04 16:37 | 49.20634 | 4.52225 | 27941 ft | 516 kts | 72° |
| 2026-05-04 16:38 | 49.23214 | 4.62479 | 27947 ft | 516 kts | 72° |
| 2026-05-04 16:39 | 49.27048 | 4.77803 | 27947 ft | 517 kts | 72° |
| 2026-05-04 16:39 | 49.29609 | 4.88100 | 27946 ft | 517 kts | 72° |
| 2026-05-04 16:40 | 49.32162 | 4.98409 | 27958 ft | 517 kts | 72° |
| 2026-05-04 16:40 | 49.34704 | 5.08726 | 27956 ft | 517 kts | 72° |
| 2026-05-04 16:41 | 49.37241 | 5.19066 | 27957 ft | 517 kts | 73° |
| 2026-05-04 16:41 | 49.41022 | 5.34569 | 27962 ft | 517 kts | 73° |
| 2026-05-04 16:42 | 49.44768 | 5.50037 | 27963 ft | 517 kts | 73° |
| 2026-05-04 16:43 | 49.47280 | 5.60469 | 27968 ft | 517 kts | 73° |
| 2026-05-04 16:43 | 49.49748 | 5.70770 | 27971 ft | 516 kts | 73° |
| 2026-05-04 16:43 | 49.50988 | 5.75959 | 27972 ft | 516 kts | 73° |
| 2026-05-04 16:44 | 49.55913 | 5.96709 | 27985 ft | 516 kts | 73° |
| 2026-05-04 16:45 | 49.58368 | 6.07127 | 27989 ft | 516 kts | 73° |
| 2026-05-04 16:46 | 49.62028 | 6.22755 | 27993 ft | 516 kts | 73° |
| 2026-05-04 16:46 | 49.64452 | 6.33166 | 27994 ft | 516 kts | 73° |
| 2026-05-04 16:47 | 49.66871 | 6.43610 | 27987 ft | 516 kts | 73° |
| 2026-05-04 16:47 | 49.69265 | 6.53991 | 27979 ft | 516 kts | 73° |
| 2026-05-04 16:48 | 49.72860 | 6.69678 | 27970 ft | 516 kts | 73° |
| 2026-05-04 16:48 | 49.74054 | 6.74916 | 27965 ft | 516 kts | 73° |
| 2026-05-04 16:49 | 49.76417 | 6.85315 | 27970 ft | 516 kts | 73° |
| 2026-05-04 16:49 | 49.78797 | 6.95841 | 27662 ft | 513 kts | 74° |
| 2026-05-04 16:50 | 49.81113 | 7.06126 | 26445 ft | 501 kts | 74° |
| 2026-05-04 16:50 | 49.83379 | 7.16249 | 25077 ft | 493 kts | 74° |
| 2026-05-04 16:51 | 49.85591 | 7.26174 | 24153 ft | 476 kts | 74° |
| 2026-05-04 16:51 | 49.86654 | 7.30953 | 23882 ft | 463 kts | 74° |
| 2026-05-04 16:51 | 49.88693 | 7.40164 | 23328 ft | 440 kts | 74° |
| 2026-05-04 16:52 | 49.90625 | 7.48942 | 22656 ft | 421 kts | 74° |
| 2026-05-04 16:52 | 49.91563 | 7.53220 | 22188 ft | 416 kts | 74° |
| 2026-05-04 16:53 | 49.93407 | 7.61654 | 21158 ft | 410 kts | 73° |
| 2026-05-04 16:53 | 49.96095 | 7.74091 | 19674 ft | 402 kts | 73° |
| 2026-05-04 16:54 | 49.96972 | 7.78200 | 19190 ft | 400 kts | 74° |
| 2026-05-04 16:55 | 50.00401 | 7.94395 | 17174 ft | 389 kts | 73° |
| 2026-05-04 16:55 | 50.02080 | 8.02330 | 16147 ft | 383 kts | 73° |
| 2026-05-04 16:56 | 50.03731 | 8.10082 | 15141 ft | 378 kts | 74° |
| 2026-05-04 16:56 | 50.06214 | 8.21598 | 13706 ft | 369 kts | 74° |
| 2026-05-04 16:57 | 50.07024 | 8.25321 | 13179 ft | 366 kts | 74° |
| 2026-05-04 16:57 | 50.08655 | 8.32752 | 12147 ft | 360 kts | 74° |
| 2026-05-04 16:58 | 50.11094 | 8.43725 | 10645 ft | 354 kts | 74° |
| 2026-05-04 16:58 | 50.11905 | 8.47319 | 10178 ft | 351 kts | 74° |
| 2026-05-04 16:59 | 50.13514 | 8.54433 | 9203 ft | 345 kts | 74° |
| 2026-05-04 17:00 | 50.16635 | 8.68384 | 7285 ft | 337 kts | 74° |
| 2026-05-04 17:00 | 50.18899 | 8.78670 | 6153 ft | 332 kts | 74° |
| 2026-05-04 17:01 | 50.20363 | 8.85476 | 5394 ft | 329 kts | 74° |
| 2026-05-04 17:01 | 50.21754 | 8.92061 | 5002 ft | 304 kts | 74° |
| 2026-05-04 17:02 | 50.22998 | 8.97947 | 5001 ft | 268 kts | 75° |
| 2026-05-04 17:02 | 50.22951 | 9.03300 | 5013 ft | 245 kts | 123° |
| 2026-05-04 17:03 | 50.21851 | 9.05216 | 5007 ft | 233 kts | 153° |
| 2026-05-04 17:03 | 50.20365 | 9.05965 | 5011 ft | 222 kts | 182° |
| 2026-05-04 17:03 | 50.17698 | 9.04002 | 5015 ft | 216 kts | 221° |
| 2026-05-04 17:04 | 50.15768 | 9.00473 | 5011 ft | 217 kts | 244° |
| 2026-05-04 17:04 | 50.14971 | 8.96983 | 5006 ft | 217 kts | 249° |
| 2026-05-04 17:05 | 50.13938 | 8.92551 | 5009 ft | 217 kts | 247° |
| 2026-05-04 17:05 | 50.12896 | 8.88203 | 4972 ft | 205 kts | 246° |
| 2026-05-04 17:06 | 50.11927 | 8.84142 | 4584 ft | 192 kts | 246° |
| 2026-05-04 17:06 | 50.11475 | 8.82247 | 4258 ft | 183 kts | 246° |
| 2026-05-04 17:07 | 50.10578 | 8.78487 | 3719 ft | 184 kts | 246° |
| 2026-05-04 17:07 | 50.10284 | 8.77259 | 3549 ft | 182 kts | 246° |
| 2026-05-04 17:07 | 50.09699 | 8.74806 | 3224 ft | 180 kts | 246° |
| 2026-05-04 17:07 | 50.09261 | 8.72976 | 2985 ft | 180 kts | 246° |
| 2026-05-04 17:08 | 50.08828 | 8.71165 | 2756 ft | 181 kts | 247° |
| 2026-05-04 17:08 | 50.07960 | 8.67520 | 2279 ft | 180 kts | 247° |
| 2026-05-04 17:08 | 50.07570 | 8.65889 | 2058 ft | 177 kts | 248° |
| 2026-05-04 17:09 | 50.07190 | 8.64271 | 1855 ft | 178 kts | 247° |
| 2026-05-04 17:09 | 50.06760 | 8.62476 | 1612 ft | 175 kts | 246° |
| 2026-05-04 17:09 | 50.06354 | 8.60804 | 1379 ft | 158 kts | 247° |
| 2026-05-04 17:10 | 50.05617 | 8.57716 | 958 ft | 142 kts | 250° |
| 2026-05-04 17:10 | 50.04629 | 8.53639 | 463 ft | 136 kts | 255° |
| 2026-05-04 17:11 | 50.04323 | 8.52268 | 358 ft | 125 kts | 249° |
| 2026-05-04 17:11 | 50.04107 | 8.51373 | 354 ft | 67 kts | 249° |